Clovis/Cannon AFB, New Mexico
Current Conditions -  °F | °C
As of 9:58 PM on Thursday 30 Oct 2014 (Local Time) from KCVS Reporting Station
Clear Clear  
Wind Chill: 44°   Ceiling: Unl
Heat Index: 48°   Visibility: 10mi
Dew Point: 28°   Wind: 10mph
Humidity: 46%   Direction: 50°NE
Pressure: 30.34"   Gusts: NA
Location:  34.38°N, 103.32°W
Report Text: KCVS 310358Z AUTO 05009KT 10SM CLR 09/M02 A3034 RMK AO2 SLP244
Loading
Personal Weather Stations






























Interactive Weather Map
Tropical Storm Tracking
New forecast layout! Learn more

10-Day Weather Forecast

Advertisements
Track Severe Weather on mobile